Pacific Falcon — WDE4151 — position and weather

sailwx.info

Track history (hours):
 
Tides and Currents Weather Stations Pressure Air Temp Water Temp Dewpoint Dewpoint Depression Visibility Wind Speed Wind Dir Waves Ship Positions

Pacific Falcon

Owner: Harley Marine Services, INC, SEATTLE, WA. More information available from US FCC via Universal Licensing System and Coast Guard Vessel Documentation Center.

Last reported at 2017-Oct-19 05:32 UTC. Time now 2017-Oct-20 05:18 UTC.
Position N 38°02' W 122°08'.

Length 36 m; draft 4.2 m.

Type: Tow > 200 m length. MMSI: 367349430.

Date/timePositionNaut miles runAvg speedWind from/ knotsBaromVisibWave heightAir tempDewpointWater temp
2017-Oct-19 05:32N 38°02' W 122°08'0 0.0
2017-Oct-19 04:14N 38°02' W 122°08'0 0.0
2017-Oct-19 04:00N 38°02' W 122°08'0 0.0
2017-Oct-19 03:30N 38°02' W 122°08'0 0.0
2017-Oct-19 03:00N 38°02' W 122°08'0 0.0
2017-Oct-19 02:30N 38°02' W 122°08'0 0.0
2017-Oct-19 02:00N 38°02' W 122°08'0 0.0
2017-Oct-19 01:30N 38°02' W 122°08'0 0.0
2017-Oct-19 01:00N 38°02' W 122°08'0 0.0
2017-Oct-18 23:45N 38°02' W 122°08'0 0.0
2017-Oct-18 23:30N 38°02' W 122°08'0 0.0
2017-Oct-18 23:00N 38°02' W 122°08'0 0.0
2017-Oct-18 22:30N 38°02' W 122°08'0 0.0
2017-Oct-18 21:11N 38°02' W 122°08'0 0.0
2017-Oct-18 20:51N 38°02' W 122°08'1 0.5
2017-Oct-18 19:51N 38°03' W 122°08'1 2.4
2017-Oct-18 19:30N 38°02' W 122°08'3 6.0
2017-Oct-18 19:00N 38°03' W 122°12'5 9.5
2017-Oct-18 18:30N 38°03' W 122°18'4 8.0
2017-Oct-18 17:59N 38°02' W 122°22'4 9.4
2017-Oct-18 17:30N 37°58' W 122°26'4 8.7
2017-Oct-18 17:00N 37°54' W 122°26'4 7.8
2017-Oct-18 16:30N 37°50' W 122°24'3 6.8
2017-Oct-18 16:00N 37°49' W 122°28'4 8.8
2017-Oct-18 15:30N 37°47' W 122°33'4 7.5
2017-Oct-18 15:00N 37°46' W 122°38'4 4.1
2017-Oct-18 13:57N 37°43' W 122°41'2 4.1
2017-Oct-18 13:30N 37°42' W 122°43'2 4.6
2017-Oct-18 13:00N 37°41' W 122°46'3 5.1
2017-Oct-18 12:30N 37°39' W 122°49'3 5.3
2017-Oct-18 12:00N 37°38' W 122°52'3 5.7
2017-Oct-18 11:30N 37°36' W 122°55'3 5.6
2017-Oct-18 11:00N 37°35' W 122°57'3 6.1
2017-Oct-18 10:30N 37°33' W 123°01'3 5.5
2017-Oct-18 10:00N 37°31' W 123°03'3 5.5
2017-Oct-18 09:30N 37°28' W 123°03'3 5.4
2017-Oct-18 09:00N 37°25' W 123°03'4 5.4
2017-Oct-18 08:17N 37°22' W 123°01'2 5.6
2017-Oct-18 07:59N 37°20' W 123°00'3 5.7
2017-Oct-18 07:28N 37°18' W 122°59'3 5.7
2017-Oct-18 07:00N 37°15' W 122°58'3 5.7
2017-Oct-18 06:30N 37°13' W 122°56'4 5.8
2017-Oct-18 05:53N 37°09' W 122°54'2 5.8
2017-Oct-18 05:30N 37°07' W 122°53'3 6.1
2017-Oct-18 04:59N 37°04' W 122°51'3 6.1
2017-Oct-18 04:29N 37°01' W 122°50'3 6.3
2017-Oct-18 04:00N 36°59' W 122°49'3 6.5
2017-Oct-18 03:30N 36°56' W 122°47'3 6.3
2017-Oct-18 03:00N 36°53' W 122°46'3 6.2
2017-Oct-18 02:30N 36°50' W 122°44'3 6.1
2017-Oct-18 02:00N 36°47' W 122°42'3 6.0
2017-Oct-18 01:30N 36°45' W 122°40'3 6.2
2017-Oct-18 01:00N 36°42' W 122°39'3 6.3
2017-Oct-18 00:30N 36°39' W 122°37'3 6.1
2017-Oct-18 00:00N 36°36' W 122°36'3 5.8
2017-Oct-17 23:30N 36°34' W 122°34'16 6.4
2017-Oct-17 21:01N 36°19' W 122°26'1 7.2
2017-Oct-17 20:56N 36°19' W 122°25'3 6.8
2017-Oct-17 20:30N 36°16' W 122°24'4 6.9
2017-Oct-17 19:57N 36°13' W 122°22'4 6.9
2017-Oct-17 19:27N 36°09' W 122°20'7 7.1
2017-Oct-17 18:26N 36°03' W 122°16'3 7.4
2017-Oct-17 17:59N 36°00' W 122°14'4 7.1
2017-Oct-17 17:28N 35°57' W 122°11'44 7.0
2017-Oct-17 11:11N 35°22' W 121°39'1 6.5
2017-Oct-17 11:00N 35°21' W 121°38'3 6.6
2017-Oct-17 10:30N 35°18' W 121°36'3 6.6
2017-Oct-17 09:59N 35°15' W 121°34'3 7.1
2017-Oct-17 09:30N 35°13' W 121°31'3 6.9
2017-Oct-17 09:00N 35°10' W 121°29'3 7.0
2017-Oct-17 08:30N 35°07' W 121°26'4 7.0
2017-Oct-17 08:00N 35°04' W 121°24'4 6.9
2017-Oct-17 07:30N 35°01' W 121°21'3 6.8
2017-Oct-17 07:00N 34°58' W 121°19'3 7.1
2017-Oct-17 06:30N 34°56' W 121°17'4 7.6
2017-Oct-17 06:00N 34°52' W 121°14'4 7.5
2017-Oct-17 05:30N 34°49' W 121°11'4 7.4
2017-Oct-17 04:59N 34°46' W 121°08'3 7.2
2017-Oct-17 04:30N 34°43' W 121°06'4 7.3
2017-Oct-17 04:00N 34°40' W 121°04'4 7.3
2017-Oct-17 03:30N 34°38' W 121°01'4 7.3
2017-Oct-17 03:00N 34°35' W 120°58'3 7.0
2017-Oct-17 02:30N 34°32' W 120°55'4 7.1
2017-Oct-17 02:00N 34°29' W 120°52'4 7.4
2017-Oct-17 01:30N 34°27' W 120°49'4 7.5
2017-Oct-17 01:00N 34°25' W 120°45'4 7.5
2017-Oct-17 00:29N 34°24' W 120°41'3 7.1
2017-Oct-17 00:00N 34°23' W 120°37'4 6.7
2017-Oct-16 23:28N 34°22' W 120°32'3 6.8
2017-Oct-16 22:59N 34°21' W 120°29'3 6.6
2017-Oct-16 22:28N 34°20' W 120°25'3 6.3
2017-Oct-16 22:00N 34°20' W 120°21'3 6.4
2017-Oct-16 21:30N 34°19' W 120°17'3 6.8
2017-Oct-16 21:00N 34°18' W 120°13'4 7.0
2017-Oct-16 20:28N 34°17' W 120°09'3 7.5
2017-Oct-16 20:00N 34°16' W 120°05'4 7.7
2017-Oct-16 19:30N 34°15' W 120°01'4 7.5
2017-Oct-16 19:00N 34°14' W 119°56'4 7.6
2017-Oct-16 18:29N 34°13' W 119°52'3 7.0
2017-Oct-16 18:00N 34°12' W 119°48'4 7.3
2017-Oct-16 17:29N 34°11' W 119°43'4 7.3
2017-Oct-16 16:58N 34°10' W 119°39'4 7.5
2017-Oct-16 16:29N 34°09' W 119°35'4 7.8
2017-Oct-16 16:00N 34°08' W 119°30'4 8.0
2017-Oct-16 15:30N 34°07' W 119°26'4 8.1
2017-Oct-16 14:59N 34°06' W 119°21'8 8.0
2017-Oct-16 13:59N 34°03' W 119°12'4 7.8
2017-Oct-16 13:30N 34°01' W 119°08'4 7.8
2017-Oct-16 12:59N 33°59' W 119°04'4 7.6
2017-Oct-16 12:29N 33°57' W 118°60'4 7.5
2017-Oct-16 12:00N 33°56' W 118°56'4 7.5
2017-Oct-16 11:24N 33°53' W 118°51'4 7.3
2017-Oct-16 10:54N 33°51' W 118°47'3 7.4
2017-Oct-16 10:30N 33°50' W 118°44'4 7.3
2017-Oct-16 10:00N 33°48' W 118°40'4 7.4
2017-Oct-16 09:29N 33°46' W 118°36'4 7.4
2017-Oct-16 09:00N 33°44' W 118°33'4 7.4
2017-Oct-16 08:28N 33°43' W 118°28'3 7.2
2017-Oct-16 08:00N 33°41' W 118°25'4 7.2
2017-Oct-16 07:30N 33°39' W 118°21'5 6.3
2017-Oct-16 06:45N 33°39' W 118°16'1 6.1
2017-Oct-16 06:30N 33°41' W 118°15'3 4.5
2017-Oct-16 05:57N 33°43' W 118°16'2 3.0
2017-Oct-16 05:26N 33°44' W 118°17'1 2.7
2017-Oct-16 04:56N 33°46' W 118°16'0 0.0
2017-Oct-16 04:30N 33°46' W 118°16'0 0.1
2017-Oct-16 03:52N 33°46' W 118°16'0 0.0
2017-Oct-16 03:26N 33°46' W 118°16'0 0.0
2017-Oct-16 02:57N 33°46' W 118°16'0 0.0
2017-Oct-16 02:27N 33°46' W 118°16'0 0.0
2017-Oct-16 01:54N 33°46' W 118°16'0 0.0
2017-Oct-16 01:26N 33°46' W 118°16'0 0.0
2017-Oct-15 18:56N 33°46' W 118°16'0 0.0
2017-Oct-15 18:14N 33°46' W 118°16'0 0.0
2017-Oct-15 13:23N 33°46' W 118°16'0 0.0
2017-Oct-15 12:59N 33°46' W 118°16'0 0.0
2017-Oct-15 12:20N 33°46' W 118°16'0 0.0
2017-Oct-15 11:17N 33°46' W 118°16'0 0.0
2017-Oct-15 10:59N 33°46' W 118°16'0 0.0
2017-Oct-15 10:26N 33°46' W 118°16'0 0.0
2017-Oct-15 09:59N 33°46' W 118°16'0 0.0
2017-Oct-15 09:29N 33°46' W 118°16'0 0.0
2017-Oct-15 08:59N 33°46' W 118°16'0 0.0
2017-Oct-15 07:41N 33°46' W 118°16'0 0.0
2017-Oct-15 07:23N 33°46' W 118°16'0 0.0
2017-Oct-15 06:59N 33°46' W 118°16'0 0.0
2017-Oct-15 06:26N 33°46' W 118°16'0 0.0
2017-Oct-15 05:59N 33°46' W 118°16'0 0.0
2017-Oct-15 05:29N 33°46' W 118°16'0 0.0
2017-Oct-15 04:17N 33°46' W 118°16'0 0.0
2017-Oct-15 03:46N 33°46' W 118°16'0 0.0
2017-Oct-15 03:22N 33°46' W 118°16'0 0.0
2017-Oct-15 02:52N 33°46' W 118°16'0 0.0
2017-Oct-15 02:28N 33°46' W 118°16'0 0.0
2017-Oct-15 01:58N 33°46' W 118°16'0 0.0
2017-Oct-15 01:16N 33°46' W 118°16'0 0.0
2017-Oct-15 01:00N 33°46' W 118°16'0 0.0
2017-Oct-15 00:30N 33°46' W 118°16'0 0.0
2017-Oct-15 00:00N 33°46' W 118°16'0 0.0
2017-Oct-14 23:30N 33°46' W 118°16'0 0.0
2017-Oct-14 23:00N 33°46' W 118°16'0 0.0
2017-Oct-14 22:30N 33°46' W 118°16'0 0.0
2017-Oct-14 22:00N 33°46' W 118°16'0 0.0
2017-Oct-14 21:30N 33°46' W 118°16'0 0.0
2017-Oct-14 21:00N 33°46' W 118°16'0 0.0
2017-Oct-14 20:30N 33°46' W 118°16'0 0.0
2017-Oct-14 20:00N 33°46' W 118°16'0 0.0
2017-Oct-14 19:30N 33°46' W 118°16'0 0.0
2017-Oct-14 19:00N 33°46' W 118°16'0 0.0
2017-Oct-14 18:30N 33°46' W 118°16'0 0.0
2017-Oct-14 17:59N 33°46' W 118°16'0 0.0
2017-Oct-14 17:30N 33°46' W 118°16'0 0.0
2017-Oct-14 17:00N 33°46' W 118°16'0 0.0
2017-Oct-14 16:30N 33°46' W 118°16'0 0.0
2017-Oct-14 16:00N 33°46' W 118°16'0 0.0
2017-Oct-14 15:30N 33°46' W 118°16'0 0.1
2017-Oct-14 14:58N 33°46' W 118°16'0 0.8
2017-Oct-14 14:28N 33°45' W 118°16'1 1.9
2017-Oct-14 14:00N 33°46' W 118°16'0 0.0
2017-Oct-14 13:25N 33°46' W 118°16'0 0.0
2017-Oct-14 13:00N 33°46' W 118°16'0 0.0
2017-Oct-14 12:30N 33°46' W 118°16'0 0.0
2017-Oct-14 12:00N 33°46' W 118°16'0 0.0
2017-Oct-14 11:30N 33°46' W 118°16'0 0.0
2017-Oct-14 10:57N 33°46' W 118°16'0 0.0
2017-Oct-14 10:25N 33°46' W 118°16'0 0.0
2017-Oct-14 10:00N 33°46' W 118°16'0 0.0
2017-Oct-14 08:59N 33°46' W 118°16'0 0.0
2017-Oct-14 08:30N 33°46' W 118°16'0 0.0
2017-Oct-14 07:42N 33°46' W 118°16'0 0.0
2017-Oct-14 07:30N 33°46' W 118°16'0 0.0
2017-Oct-14 06:55N 33°46' W 118°16'0 0.0
2017-Oct-14 06:30N 33°46' W 118°16'0 0.0
2017-Oct-14 05:59N 33°46' W 118°16'0 0.0
2017-Oct-14 05:19N 33°46' W 118°16'0 0.0
2017-Oct-14 05:00N 33°46' W 118°16'0 0.0
2017-Oct-14 04:30N 33°46' W 118°16'0 0.0
2017-Oct-14 03:59N 33°46' W 118°16'0 0.0
2017-Oct-14 03:30N 33°46' W 118°16'0 0.0
2017-Oct-14 03:00N 33°46' W 118°16'0 0.0
2017-Oct-14 02:30N 33°46' W 118°16'0 0.0
2017-Oct-14 01:59N 33°46' W 118°16'0 0.0
2017-Oct-14 01:19N 33°46' W 118°16'0 0.0
2017-Oct-14 01:00N 33°46' W 118°16'0 0.0
2017-Oct-14 00:30N 33°46' W 118°16'0 0.0
2017-Oct-13 23:59N 33°46' W 118°16'0 0.0
2017-Oct-13 23:30N 33°46' W 118°16'0 0.0
2017-Oct-13 23:00N 33°46' W 118°16'0 0.0
2017-Oct-13 22:01N 33°46' W 118°16'0 0.0
2017-Oct-13 21:54N 33°46' W 118°16'0 0.0
2017-Oct-13 21:30N 33°46' W 118°16'0 0.0
2017-Oct-13 20:46N 33°46' W 118°16'0 0.0
2017-Oct-13 20:30N 33°46' W 118°16'0 0.0
2017-Oct-13 19:56N 33°46' W 118°16'0 0.0
2017-Oct-13 19:30N 33°46' W 118°16'0 0.0
2017-Oct-13 19:00N 33°46' W 118°16'0 0.0
2017-Oct-13 18:23N 33°46' W 118°16'0 0.0
2017-Oct-13 18:00N 33°46' W 118°16'0 0.0
2017-Oct-13 17:17N 33°46' W 118°16'0 0.0
2017-Oct-13 17:00N 33°46' W 118°16'0 0.0
2017-Oct-13 16:30N 33°46' W 118°16'0 0.0
2017-Oct-13 15:48N 33°46' W 118°16'0 0.0
2017-Oct-13 15:30N 33°46' W 118°16'0 0.0
2017-Oct-13 14:58N 33°46' W 118°16'0 0.0
2017-Oct-13 14:30N 33°46' W 118°16'0 0.0
2017-Oct-13 14:01N 33°46' W 118°16'0 0.0
2017-Oct-13 13:27N 33°46' W 118°16'0 0.0
2017-Oct-13 13:00N 33°46' W 118°16'0 0.0
2017-Oct-13 12:29N 33°46' W 118°16'0 0.0
2017-Oct-13 12:00N 33°46' W 118°16'0 0.0
2017-Oct-13 11:30N 33°46' W 118°16'0 0.0
2017-Oct-13 11:00N 33°46' W 118°16'0 0.0
2017-Oct-13 10:31N 33°46' W 118°16'0 0.0
2017-Oct-13 10:00N 33°46' W 118°16'0 0.0
2017-Oct-13 09:28N 33°46' W 118°16'0 0.0
2017-Oct-13 09:00N 33°46' W 118°16'0 0.0
2017-Oct-13 08:30N 33°46' W 118°16'0 0.0
2017-Oct-13 07:46N 33°46' W 118°16'0 0.0
2017-Oct-13 07:28N 33°46' W 118°16'0 0.0
2017-Oct-13 07:00N 33°46' W 118°16'0 0.0
2017-Oct-13 06:29N 33°46' W 118°16'0 0.0
2017-Oct-13 06:00N 33°46' W 118°16'0 0.0
2017-Oct-13 05:28N 33°46' W 118°16'0 0.0
2017-Oct-13 04:58N 33°46' W 118°16'0 0.0
2017-Oct-13 04:30N 33°46' W 118°16'0 0.0
2017-Oct-13 04:00N 33°46' W 118°16'0 0.0
2017-Oct-13 03:30N 33°46' W 118°16'0 0.0
2017-Oct-13 02:59N 33°46' W 118°16'0 0.0
2017-Oct-13 02:30N 33°46' W 118°16'0 0.0
2017-Oct-13 02:00N 33°46' W 118°16'0 0.0
2017-Oct-13 01:25N 33°46' W 118°16'0 0.0
2017-Oct-13 00:54N 33°46' W 118°16'0 0.0
2017-Oct-13 00:29N 33°46' W 118°16'0 0.0
2017-Oct-12 23:58N 33°46' W 118°16'0 0.0
2017-Oct-12 23:30N 33°46' W 118°16'0 0.0
2017-Oct-12 22:44N 33°46' W 118°16'0 0.0
2017-Oct-12 22:23N 33°46' W 118°16'0 0.0
2017-Oct-12 22:00N 33°46' W 118°16'0 0.0
2017-Oct-12 21:30N 33°46' W 118°16'0 0.0
2017-Oct-12 21:00N 33°46' W 118°16'0 0.0
2017-Oct-12 20:27N 33°46' W 118°16'0 0.0
2017-Oct-12 19:48N 33°46' W 118°16'0 0.0
2017-Oct-12 19:10N 33°46' W 118°16'0 0.0
2017-Oct-12 18:59N 33°46' W 118°16'0 0.0
2017-Oct-12 18:30N 33°46' W 118°16'1 1.3
2017-Oct-12 18:00N 33°45' W 118°16'2 4.5
2017-Oct-12 17:30N 33°43' W 118°16'1 2.2
2017-Oct-12 16:59N 33°42' W 118°15'2 4.6
2017-Oct-12 16:29N 33°40' W 118°13'3 4.5
2017-Oct-12 15:51N 33°38' W 118°13'1 2.8
2017-Oct-12 15:30N 33°38' W 118°13'2 3.5
2017-Oct-12 14:59N 33°40' W 118°13'1 1.9
2017-Oct-12 14:30N 33°41' W 118°13'2 3.6
2017-Oct-12 13:59N 33°39' W 118°13'2 3.9
2017-Oct-12 13:26N 33°37' W 118°14'2 4.0
2017-Oct-12 12:53N 33°35' W 118°15'2 3.8
2017-Oct-12 12:23N 33°36' W 118°18'2 5.1
2017-Oct-12 12:00N 33°36' W 118°20'3 5.2
2017-Oct-12 11:30N 33°37' W 118°23'3 5.4
2017-Oct-12 10:58N 33°38' W 118°26'3 5.5
2017-Oct-12 10:30N 33°39' W 118°29'3 5.6
2017-Oct-12 10:00N 33°41' W 118°32'3 5.6
2017-Oct-12 09:30N 33°42' W 118°35'3 5.7
2017-Oct-12 09:00N 33°43' W 118°38'3 5.8
2017-Oct-12 08:30N 33°45' W 118°40'3 6.0
2017-Oct-12 08:00N 33°46' W 118°44'3 5.9
2017-Oct-12 07:30N 33°48' W 118°47'3 5.8
2017-Oct-12 07:00N 33°49' W 118°50'3 5.7
2017-Oct-12 06:30N 33°51' W 118°53'3 5.7
2017-Oct-12 06:00N 33°52' W 118°56'3 5.6
2017-Oct-12 05:31N 33°54' W 118°59'3 5.6
2017-Oct-12 05:00N 33°55' W 119°02'3 5.6
2017-Oct-12 04:30N 33°56' W 119°05'3 5.5
2017-Oct-12 04:00N 33°58' W 119°07'3 5.5
2017-Oct-12 03:30N 33°59' W 119°10'3 5.6
2017-Oct-12 03:01N 34°00' W 119°13'3 5.9
2017-Oct-12 02:30N 34°02' W 119°16'3 6.0
2017-Oct-12 02:00N 34°03' W 119°20'3 6.0
2017-Oct-12 01:30N 34°04' W 119°23'3 6.3
2017-Oct-12 01:00N 34°05' W 119°27'3 5.9
2017-Oct-12 00:31N 34°05' W 119°30'3 6.3
2017-Oct-11 23:59N 34°06' W 119°34'3 5.8
2017-Oct-11 23:24N 34°07' W 119°38'2 5.9
2017-Oct-11 23:00N 34°08' W 119°41'3 6.2
2017-Oct-11 22:30N 34°08' W 119°45'3 6.3
2017-Oct-11 22:00N 34°09' W 119°48'3 6.2
2017-Oct-11 21:30N 34°10' W 119°52'3 6.1
2017-Oct-11 20:59N 34°11' W 119°55'3 6.0
2017-Oct-11 20:26N 34°12' W 119°59'3 5.9
2017-Oct-11 20:00N 34°12' W 120°02'3 6.0
2017-Oct-11 19:30N 34°13' W 120°06'3 5.8
2017-Oct-11 18:59N 34°14' W 120°09'3 5.7
2017-Oct-11 18:30N 34°15' W 120°12'3 5.6
2017-Oct-11 18:00N 34°16' W 120°16'3 5.8
2017-Oct-11 17:30N 34°17' W 120°19'3 6.0
2017-Oct-11 17:00N 34°17' W 120°23'188 6.0
2017-Oct-10 09:43N 36°45' W 122°46'2 6.6
2017-Oct-10 09:29N 36°46' W 122°47'37 6.2
2017-Oct-10 03:35N 37°21' W 123°03'1 6.2
2017-Oct-10 03:29N 37°21' W 123°03'3 6.3
2017-Oct-10 02:58N 37°25' W 123°03'3 6.2
2017-Oct-10 02:29N 37°27' W 123°03'3 6.3
2017-Oct-10 02:00N 37°31' W 123°03'3 6.6
2017-Oct-10 01:31N 37°34' W 123°04'3 6.1
2017-Oct-10 01:00N 37°36' W 123°01'3 6.1
2017-Oct-10 00:30N 37°38' W 122°58'3 6.3
2017-Oct-10 00:00N 37°39' W 122°54'3 6.3
2017-Oct-09 23:30N 37°41' W 122°51'3 6.3
2017-Oct-09 23:00N 37°43' W 122°48'3 6.2
2017-Oct-09 22:30N 37°45' W 122°44'3 6.0
2017-Oct-09 21:59N 37°46' W 122°41'3 6.2
2017-Oct-09 21:30N 37°46' W 122°37'3 5.6
2017-Oct-09 21:00N 37°47' W 122°34'3 5.3
2017-Oct-09 20:30N 37°49' W 122°31'2 4.5
2017-Oct-09 20:00N 37°49' W 122°28'3 5.4
2017-Oct-09 19:30N 37°50' W 122°25'3 5.5
2017-Oct-09 19:00N 37°53' W 122°26'3 5.9
2017-Oct-09 18:30N 37°56' W 122°27'4 7.0
2017-Oct-09 17:59N 37°60' W 122°25'3 6.9
2017-Oct-09 17:30N 38°02' W 122°22'5 8.0
2017-Oct-09 16:55N 38°04' W 122°17'4 8.9
2017-Oct-09 16:30N 38°03' W 122°12'  
Track history (hours):
 
Tides and Currents Weather Stations Pressure Air Temp Water Temp Dewpoint Dewpoint Depression Visibility Wind Speed Wind Dir Waves Ship Positions

Pacific Falcon

Owner: Harley Marine Services, INC, SEATTLE, WA. More information available from US FCC via Universal Licensing System and Coast Guard Vessel Documentation Center.

Last reported at 2017-Oct-19 05:32 UTC. Time now 2017-Oct-20 05:18 UTC.
Position N 38°02' W 122°08'.

Length 36 m; draft 4.2 m.

Type: Tow > 200 m length. MMSI: 367349430.

Date/timePositionNaut miles runAvg speedWind from/ knotsBaromVisibWave heightAir tempDewpointWater temp
2017-Oct-19 05:32N 38°02' W 122°08'0 0.0
2017-Oct-19 04:14N 38°02' W 122°08'0 0.0
2017-Oct-19 04:00N 38°02' W 122°08'0 0.0
2017-Oct-19 03:30N 38°02' W 122°08'0 0.0
2017-Oct-19 03:00N 38°02' W 122°08'0 0.0
2017-Oct-19 02:30N 38°02' W 122°08'0 0.0
2017-Oct-19 02:00N 38°02' W 122°08'0 0.0
2017-Oct-19 01:30N 38°02' W 122°08'0 0.0
2017-Oct-19 01:00N 38°02' W 122°08'0 0.0
2017-Oct-18 23:45N 38°02' W 122°08'0 0.0
2017-Oct-18 23:30N 38°02' W 122°08'0 0.0
2017-Oct-18 23:00N 38°02' W 122°08'0 0.0
2017-Oct-18 22:30N 38°02' W 122°08'0 0.0
2017-Oct-18 21:11N 38°02' W 122°08'0 0.0
2017-Oct-18 20:51N 38°02' W 122°08'1 0.5
2017-Oct-18 19:51N 38°03' W 122°08'1 2.4
2017-Oct-18 19:30N 38°02' W 122°08'3 6.0
2017-Oct-18 19:00N 38°03' W 122°12'5 9.5
2017-Oct-18 18:30N 38°03' W 122°18'4 8.0
2017-Oct-18 17:59N 38°02' W 122°22'4 9.4
2017-Oct-18 17:30N 37°58' W 122°26'4 8.7
2017-Oct-18 17:00N 37°54' W 122°26'4 7.8
2017-Oct-18 16:30N 37°50' W 122°24'3 6.8
2017-Oct-18 16:00N 37°49' W 122°28'4 8.8
2017-Oct-18 15:30N 37°47' W 122°33'4 7.5
2017-Oct-18 15:00N 37°46' W 122°38'4 4.1
2017-Oct-18 13:57N 37°43' W 122°41'2 4.1
2017-Oct-18 13:30N 37°42' W 122°43'2 4.6
2017-Oct-18 13:00N 37°41' W 122°46'3 5.1
2017-Oct-18 12:30N 37°39' W 122°49'3 5.3
2017-Oct-18 12:00N 37°38' W 122°52'3 5.7
2017-Oct-18 11:30N 37°36' W 122°55'3 5.6
2017-Oct-18 11:00N 37°35' W 122°57'3 6.1
2017-Oct-18 10:30N 37°33' W 123°01'3 5.5
2017-Oct-18 10:00N 37°31' W 123°03'3 5.5
2017-Oct-18 09:30N 37°28' W 123°03'3 5.4
2017-Oct-18 09:00N 37°25' W 123°03'4 5.4
2017-Oct-18 08:17N 37°22' W 123°01'2 5.6
2017-Oct-18 07:59N 37°20' W 123°00'3 5.7
2017-Oct-18 07:28N 37°18' W 122°59'3 5.7
2017-Oct-18 07:00N 37°15' W 122°58'3 5.7
2017-Oct-18 06:30N 37°13' W 122°56'4 5.8
2017-Oct-18 05:53N 37°09' W 122°54'2 5.8
2017-Oct-18 05:30N 37°07' W 122°53'3 6.1
2017-Oct-18 04:59N 37°04' W 122°51'3 6.1
2017-Oct-18 04:29N 37°01' W 122°50'3 6.3
2017-Oct-18 04:00N 36°59' W 122°49'3 6.5
2017-Oct-18 03:30N 36°56' W 122°47'3 6.3
2017-Oct-18 03:00N 36°53' W 122°46'3 6.2
2017-Oct-18 02:30N 36°50' W 122°44'3 6.1
2017-Oct-18 02:00N 36°47' W 122°42'3 6.0
2017-Oct-18 01:30N 36°45' W 122°40'3 6.2
2017-Oct-18 01:00N 36°42' W 122°39'3 6.3
2017-Oct-18 00:30N 36°39' W 122°37'3 6.1
2017-Oct-18 00:00N 36°36' W 122°36'3 5.8
2017-Oct-17 23:30N 36°34' W 122°34'16 6.4
2017-Oct-17 21:01N 36°19' W 122°26'1 7.2
2017-Oct-17 20:56N 36°19' W 122°25'3 6.8
2017-Oct-17 20:30N 36°16' W 122°24'4 6.9
2017-Oct-17 19:57N 36°13' W 122°22'4 6.9
2017-Oct-17 19:27N 36°09' W 122°20'7 7.1
2017-Oct-17 18:26N 36°03' W 122°16'3 7.4
2017-Oct-17 17:59N 36°00' W 122°14'4 7.1
2017-Oct-17 17:28N 35°57' W 122°11'44 7.0
2017-Oct-17 11:11N 35°22' W 121°39'1 6.5
2017-Oct-17 11:00N 35°21' W 121°38'3 6.6
2017-Oct-17 10:30N 35°18' W 121°36'3 6.6
2017-Oct-17 09:59N 35°15' W 121°34'3 7.1
2017-Oct-17 09:30N 35°13' W 121°31'3 6.9
2017-Oct-17 09:00N 35°10' W 121°29'3 7.0
2017-Oct-17 08:30N 35°07' W 121°26'4 7.0
2017-Oct-17 08:00N 35°04' W 121°24'4 6.9
2017-Oct-17 07:30N 35°01' W 121°21'3 6.8
2017-Oct-17 07:00N 34°58' W 121°19'3 7.1
2017-Oct-17 06:30N 34°56' W 121°17'4 7.6
2017-Oct-17 06:00N 34°52' W 121°14'4 7.5
2017-Oct-17 05:30N 34°49' W 121°11'4 7.4
2017-Oct-17 04:59N 34°46' W 121°08'3 7.2
2017-Oct-17 04:30N 34°43' W 121°06'4 7.3
2017-Oct-17 04:00N 34°40' W 121°04'4 7.3
2017-Oct-17 03:30N 34°38' W 121°01'4 7.3
2017-Oct-17 03:00N 34°35' W 120°58'3 7.0
2017-Oct-17 02:30N 34°32' W 120°55'4 7.1
2017-Oct-17 02:00N 34°29' W 120°52'4 7.4
2017-Oct-17 01:30N 34°27' W 120°49'4 7.5
2017-Oct-17 01:00N 34°25' W 120°45'4 7.5
2017-Oct-17 00:29N 34°24' W 120°41'3 7.1
2017-Oct-17 00:00N 34°23' W 120°37'4 6.7
2017-Oct-16 23:28N 34°22' W 120°32'3 6.8
2017-Oct-16 22:59N 34°21' W 120°29'3 6.6
2017-Oct-16 22:28N 34°20' W 120°25'3 6.3
2017-Oct-16 22:00N 34°20' W 120°21'3 6.4
2017-Oct-16 21:30N 34°19' W 120°17'3 6.8
2017-Oct-16 21:00N 34°18' W 120°13'4 7.0
2017-Oct-16 20:28N 34°17' W 120°09'3 7.5
2017-Oct-16 20:00N 34°16' W 120°05'4 7.7
2017-Oct-16 19:30N 34°15' W 120°01'4 7.5
2017-Oct-16 19:00N 34°14' W 119°56'4 7.6
2017-Oct-16 18:29N 34°13' W 119°52'3 7.0
2017-Oct-16 18:00N 34°12' W 119°48'4 7.3
2017-Oct-16 17:29N 34°11' W 119°43'4 7.3
2017-Oct-16 16:58N 34°10' W 119°39'4 7.5
2017-Oct-16 16:29N 34°09' W 119°35'4 7.8
2017-Oct-16 16:00N 34°08' W 119°30'4 8.0
2017-Oct-16 15:30N 34°07' W 119°26'4 8.1
2017-Oct-16 14:59N 34°06' W 119°21'8 8.0
2017-Oct-16 13:59N 34°03' W 119°12'4 7.8
2017-Oct-16 13:30N 34°01' W 119°08'4 7.8
2017-Oct-16 12:59N 33°59' W 119°04'4 7.6
2017-Oct-16 12:29N 33°57' W 118°60'4 7.5
2017-Oct-16 12:00N 33°56' W 118°56'4 7.5
2017-Oct-16 11:24N 33°53' W 118°51'4 7.3
2017-Oct-16 10:54N 33°51' W 118°47'3 7.4
2017-Oct-16 10:30N 33°50' W 118°44'4 7.3
2017-Oct-16 10:00N 33°48' W 118°40'4 7.4
2017-Oct-16 09:29N 33°46' W 118°36'4 7.4
2017-Oct-16 09:00N 33°44' W 118°33'4 7.4
2017-Oct-16 08:28N 33°43' W 118°28'3 7.2
2017-Oct-16 08:00N 33°41' W 118°25'4 7.2
2017-Oct-16 07:30N 33°39' W 118°21'5 6.3
2017-Oct-16 06:45N 33°39' W 118°16'1 6.1
2017-Oct-16 06:30N 33°41' W 118°15'3 4.5
2017-Oct-16 05:57N 33°43' W 118°16'2 3.0
2017-Oct-16 05:26N 33°44' W 118°17'1 2.7
2017-Oct-16 04:56N 33°46' W 118°16'0 0.0
2017-Oct-16 04:30N 33°46' W 118°16'0 0.1
2017-Oct-16 03:52N 33°46' W 118°16'0 0.0
2017-Oct-16 03:26N 33°46' W 118°16'0 0.0
2017-Oct-16 02:57N 33°46' W 118°16'0 0.0
2017-Oct-16 02:27N 33°46' W 118°16'0 0.0
2017-Oct-16 01:54N 33°46' W 118°16'0 0.0
2017-Oct-16 01:26N 33°46' W 118°16'0 0.0
2017-Oct-15 18:56N 33°46' W 118°16'0 0.0
2017-Oct-15 18:14N 33°46' W 118°16'0 0.0
2017-Oct-15 13:23N 33°46' W 118°16'0 0.0
2017-Oct-15 12:59N 33°46' W 118°16'0 0.0
2017-Oct-15 12:20N 33°46' W 118°16'0 0.0
2017-Oct-15 11:17N 33°46' W 118°16'0 0.0
2017-Oct-15 10:59N 33°46' W 118°16'0 0.0
2017-Oct-15 10:26N 33°46' W 118°16'0 0.0
2017-Oct-15 09:59N 33°46' W 118°16'0 0.0
2017-Oct-15 09:29N 33°46' W 118°16'0 0.0
2017-Oct-15 08:59N 33°46' W 118°16'0 0.0
2017-Oct-15 07:41N 33°46' W 118°16'0 0.0
2017-Oct-15 07:23N 33°46' W 118°16'0 0.0
2017-Oct-15 06:59N 33°46' W 118°16'0 0.0
2017-Oct-15 06:26N 33°46' W 118°16'0 0.0
2017-Oct-15 05:59N 33°46' W 118°16'0 0.0
2017-Oct-15 05:29N 33°46' W 118°16'0 0.0
2017-Oct-15 04:17N 33°46' W 118°16'0 0.0
2017-Oct-15 03:46N 33°46' W 118°16'0 0.0
2017-Oct-15 03:22N 33°46' W 118°16'0 0.0
2017-Oct-15 02:52N 33°46' W 118°16'0 0.0
2017-Oct-15 02:28N 33°46' W 118°16'0 0.0
2017-Oct-15 01:58N 33°46' W 118°16'0 0.0
2017-Oct-15 01:16N 33°46' W 118°16'0 0.0
2017-Oct-15 01:00N 33°46' W 118°16'0 0.0
2017-Oct-15 00:30N 33°46' W 118°16'0 0.0
2017-Oct-15 00:00N 33°46' W 118°16'0 0.0
2017-Oct-14 23:30N 33°46' W 118°16'0 0.0
2017-Oct-14 23:00N 33°46' W 118°16'0 0.0
2017-Oct-14 22:30N 33°46' W 118°16'0 0.0
2017-Oct-14 22:00N 33°46' W 118°16'0 0.0
2017-Oct-14 21:30N 33°46' W 118°16'0 0.0
2017-Oct-14 21:00N 33°46' W 118°16'0 0.0
2017-Oct-14 20:30N 33°46' W 118°16'0 0.0
2017-Oct-14 20:00N 33°46' W 118°16'0 0.0
2017-Oct-14 19:30N 33°46' W 118°16'0 0.0
2017-Oct-14 19:00N 33°46' W 118°16'0 0.0
2017-Oct-14 18:30N 33°46' W 118°16'0 0.0
2017-Oct-14 17:59N 33°46' W 118°16'0 0.0
2017-Oct-14 17:30N 33°46' W 118°16'0 0.0
2017-Oct-14 17:00N 33°46' W 118°16'0 0.0
2017-Oct-14 16:30N 33°46' W 118°16'0 0.0
2017-Oct-14 16:00N 33°46' W 118°16'0 0.0
2017-Oct-14 15:30N 33°46' W 118°16'0 0.1
2017-Oct-14 14:58N 33°46' W 118°16'0 0.8
2017-Oct-14 14:28N 33°45' W 118°16'1 1.9
2017-Oct-14 14:00N 33°46' W 118°16'0 0.0
2017-Oct-14 13:25N 33°46' W 118°16'0 0.0
2017-Oct-14 13:00N 33°46' W 118°16'0 0.0
2017-Oct-14 12:30N 33°46' W 118°16'0 0.0
2017-Oct-14 12:00N 33°46' W 118°16'0 0.0
2017-Oct-14 11:30N 33°46' W 118°16'0 0.0
2017-Oct-14 10:57N 33°46' W 118°16'0 0.0
2017-Oct-14 10:25N 33°46' W 118°16'0 0.0
2017-Oct-14 10:00N 33°46' W 118°16'0 0.0
2017-Oct-14 08:59N 33°46' W 118°16'0 0.0
2017-Oct-14 08:30N 33°46' W 118°16'0 0.0
2017-Oct-14 07:42N 33°46' W 118°16'0 0.0
2017-Oct-14 07:30N 33°46' W 118°16'0 0.0
2017-Oct-14 06:55N 33°46' W 118°16'0 0.0
2017-Oct-14 06:30N 33°46' W 118°16'0 0.0
2017-Oct-14 05:59N 33°46' W 118°16'0 0.0
2017-Oct-14 05:19N 33°46' W 118°16'0 0.0
2017-Oct-14 05:00N 33°46' W 118°16'0 0.0
2017-Oct-14 04:30N 33°46' W 118°16'0 0.0
2017-Oct-14 03:59N 33°46' W 118°16'0 0.0
2017-Oct-14 03:30N 33°46' W 118°16'0 0.0
2017-Oct-14 03:00N 33°46' W 118°16'0 0.0
2017-Oct-14 02:30N 33°46' W 118°16'0 0.0
2017-Oct-14 01:59N 33°46' W 118°16'0 0.0
2017-Oct-14 01:19N 33°46' W 118°16'0 0.0
2017-Oct-14 01:00N 33°46' W 118°16'0 0.0
2017-Oct-14 00:30N 33°46' W 118°16'0 0.0
2017-Oct-13 23:59N 33°46' W 118°16'0 0.0
2017-Oct-13 23:30N 33°46' W 118°16'0 0.0
2017-Oct-13 23:00N 33°46' W 118°16'0 0.0
2017-Oct-13 22:01N 33°46' W 118°16'0 0.0
2017-Oct-13 21:54N 33°46' W 118°16'0 0.0
2017-Oct-13 21:30N 33°46' W 118°16'0 0.0
2017-Oct-13 20:46N 33°46' W 118°16'0 0.0
2017-Oct-13 20:30N 33°46' W 118°16'0 0.0
2017-Oct-13 19:56N 33°46' W 118°16'0 0.0
2017-Oct-13 19:30N 33°46' W 118°16'0 0.0
2017-Oct-13 19:00N 33°46' W 118°16'0 0.0
2017-Oct-13 18:23N 33°46' W 118°16'0 0.0
2017-Oct-13 18:00N 33°46' W 118°16'0 0.0
2017-Oct-13 17:17N 33°46' W 118°16'0 0.0
2017-Oct-13 17:00N 33°46' W 118°16'0 0.0
2017-Oct-13 16:30N 33°46' W 118°16'0 0.0
2017-Oct-13 15:48N 33°46' W 118°16'0 0.0
2017-Oct-13 15:30N 33°46' W 118°16'0 0.0
2017-Oct-13 14:58N 33°46' W 118°16'0 0.0
2017-Oct-13 14:30N 33°46' W 118°16'0 0.0
2017-Oct-13 14:01N 33°46' W 118°16'0 0.0
2017-Oct-13 13:27N 33°46' W 118°16'0 0.0
2017-Oct-13 13:00N 33°46' W 118°16'0 0.0
2017-Oct-13 12:29N 33°46' W 118°16'0 0.0
2017-Oct-13 12:00N 33°46' W 118°16'0 0.0
2017-Oct-13 11:30N 33°46' W 118°16'0 0.0
2017-Oct-13 11:00N 33°46' W 118°16'0 0.0
2017-Oct-13 10:31N 33°46' W 118°16'0 0.0
2017-Oct-13 10:00N 33°46' W 118°16'0 0.0
2017-Oct-13 09:28N 33°46' W 118°16'0 0.0
2017-Oct-13 09:00N 33°46' W 118°16'0 0.0
2017-Oct-13 08:30N 33°46' W 118°16'0 0.0
2017-Oct-13 07:46N 33°46' W 118°16'0 0.0
2017-Oct-13 07:28N 33°46' W 118°16'0 0.0
2017-Oct-13 07:00N 33°46' W 118°16'0 0.0
2017-Oct-13 06:29N 33°46' W 118°16'0 0.0
2017-Oct-13 06:00N 33°46' W 118°16'0 0.0
2017-Oct-13 05:28N 33°46' W 118°16'0 0.0
2017-Oct-13 04:58N 33°46' W 118°16'0 0.0
2017-Oct-13 04:30N 33°46' W 118°16'0 0.0
2017-Oct-13 04:00N 33°46' W 118°16'0 0.0
2017-Oct-13 03:30N 33°46' W 118°16'0 0.0
2017-Oct-13 02:59N 33°46' W 118°16'0 0.0
2017-Oct-13 02:30N 33°46' W 118°16'0 0.0
2017-Oct-13 02:00N 33°46' W 118°16'0 0.0
2017-Oct-13 01:25N 33°46' W 118°16'0 0.0
2017-Oct-13 00:54N 33°46' W 118°16'0 0.0
2017-Oct-13 00:29N 33°46' W 118°16'0 0.0
2017-Oct-12 23:58N 33°46' W 118°16'0 0.0
2017-Oct-12 23:30N 33°46' W 118°16'0 0.0
2017-Oct-12 22:44N 33°46' W 118°16'0 0.0
2017-Oct-12 22:23N 33°46' W 118°16'0 0.0
2017-Oct-12 22:00N 33°46' W 118°16'0 0.0
2017-Oct-12 21:30N 33°46' W 118°16'0 0.0
2017-Oct-12 21:00N 33°46' W 118°16'0 0.0
2017-Oct-12 20:27N 33°46' W 118°16'0 0.0
2017-Oct-12 19:48N 33°46' W 118°16'0 0.0
2017-Oct-12 19:10N 33°46' W 118°16'0 0.0
2017-Oct-12 18:59N 33°46' W 118°16'0 0.0
2017-Oct-12 18:30N 33°46' W 118°16'1 1.3
2017-Oct-12 18:00N 33°45' W 118°16'2 4.5
2017-Oct-12 17:30N 33°43' W 118°16'1 2.2
2017-Oct-12 16:59N 33°42' W 118°15'2 4.6
2017-Oct-12 16:29N 33°40' W 118°13'3 4.5
2017-Oct-12 15:51N 33°38' W 118°13'1 2.8
2017-Oct-12 15:30N 33°38' W 118°13'2 3.5
2017-Oct-12 14:59N 33°40' W 118°13'1 1.9
2017-Oct-12 14:30N 33°41' W 118°13'2 3.6
2017-Oct-12 13:59N 33°39' W 118°13'2 3.9
2017-Oct-12 13:26N 33°37' W 118°14'2 4.0
2017-Oct-12 12:53N 33°35' W 118°15'2 3.8
2017-Oct-12 12:23N 33°36' W 118°18'2 5.1
2017-Oct-12 12:00N 33°36' W 118°20'3 5.2
2017-Oct-12 11:30N 33°37' W 118°23'3 5.4
2017-Oct-12 10:58N 33°38' W 118°26'3 5.5
2017-Oct-12 10:30N 33°39' W 118°29'3 5.6
2017-Oct-12 10:00N 33°41' W 118°32'3 5.6
2017-Oct-12 09:30N 33°42' W 118°35'3 5.7
2017-Oct-12 09:00N 33°43' W 118°38'3 5.8
2017-Oct-12 08:30N 33°45' W 118°40'3 6.0
2017-Oct-12 08:00N 33°46' W 118°44'3 5.9
2017-Oct-12 07:30N 33°48' W 118°47'3 5.8
2017-Oct-12 07:00N 33°49' W 118°50'3 5.7
2017-Oct-12 06:30N 33°51' W 118°53'3 5.7
2017-Oct-12 06:00N 33°52' W 118°56'3 5.6
2017-Oct-12 05:31N 33°54' W 118°59'3 5.6
2017-Oct-12 05:00N 33°55' W 119°02'3 5.6
2017-Oct-12 04:30N 33°56' W 119°05'3 5.5
2017-Oct-12 04:00N 33°58' W 119°07'3 5.5
2017-Oct-12 03:30N 33°59' W 119°10'3 5.6
2017-Oct-12 03:01N 34°00' W 119°13'3 5.9
2017-Oct-12 02:30N 34°02' W 119°16'3 6.0
2017-Oct-12 02:00N 34°03' W 119°20'3 6.0
2017-Oct-12 01:30N 34°04' W 119°23'3 6.3
2017-Oct-12 01:00N 34°05' W 119°27'3 5.9
2017-Oct-12 00:31N 34°05' W 119°30'3 6.3
2017-Oct-11 23:59N 34°06' W 119°34'3 5.8
2017-Oct-11 23:24N 34°07' W 119°38'2 5.9
2017-Oct-11 23:00N 34°08' W 119°41'3 6.2
2017-Oct-11 22:30N 34°08' W 119°45'3 6.3
2017-Oct-11 22:00N 34°09' W 119°48'3 6.2
2017-Oct-11 21:30N 34°10' W 119°52'3 6.1
2017-Oct-11 20:59N 34°11' W 119°55'3 6.0
2017-Oct-11 20:26N 34°12' W 119°59'3 5.9
2017-Oct-11 20:00N 34°12' W 120°02'3 6.0
2017-Oct-11 19:30N 34°13' W 120°06'3 5.8
2017-Oct-11 18:59N 34°14' W 120°09'3 5.7
2017-Oct-11 18:30N 34°15' W 120°12'3 5.6
2017-Oct-11 18:00N 34°16' W 120°16'3 5.8
2017-Oct-11 17:30N 34°17' W 120°19'3 6.0
2017-Oct-11 17:00N 34°17' W 120°23'188 6.0
2017-Oct-10 09:43N 36°45' W 122°46'2 6.6
2017-Oct-10 09:29N 36°46' W 122°47'37 6.2
2017-Oct-10 03:35N 37°21' W 123°03'1 6.2
2017-Oct-10 03:29N 37°21' W 123°03'3 6.3
2017-Oct-10 02:58N 37°25' W 123°03'3 6.2
2017-Oct-10 02:29N 37°27' W 123°03'3 6.3
2017-Oct-10 02:00N 37°31' W 123°03'3 6.6
2017-Oct-10 01:31N 37°34' W 123°04'3 6.1
2017-Oct-10 01:00N 37°36' W 123°01'3 6.1
2017-Oct-10 00:30N 37°38' W 122°58'3 6.3
2017-Oct-10 00:00N 37°39' W 122°54'3 6.3
2017-Oct-09 23:30N 37°41' W 122°51'3 6.3
2017-Oct-09 23:00N 37°43' W 122°48'3 6.2
2017-Oct-09 22:30N 37°45' W 122°44'3 6.0
2017-Oct-09 21:59N 37°46' W 122°41'3 6.2
2017-Oct-09 21:30N 37°46' W 122°37'3 5.6
2017-Oct-09 21:00N 37°47' W 122°34'3 5.3
2017-Oct-09 20:30N 37°49' W 122°31'2 4.5
2017-Oct-09 20:00N 37°49' W 122°28'3 5.4
2017-Oct-09 19:30N 37°50' W 122°25'3 5.5
2017-Oct-09 19:00N 37°53' W 122°26'3 5.9
2017-Oct-09 18:30N 37°56' W 122°27'4 7.0
2017-Oct-09 17:59N 37°60' W 122°25'3 6.9
2017-Oct-09 17:30N 38°02' W 122°22'5 8.0
2017-Oct-09 16:55N 38°04' W 122°17'4 8.9
2017-Oct-09 16:30N 38°03' W 122°12'  

Dump ship's entire track history